createdAt,value
2017-06-03T00:01:11.116Z,16.85
2017-06-03T00:02:23.540Z,16.87
2017-06-03T00:03:36.451Z,16.9
2017-06-03T00:04:48.871Z,16.9
2017-06-03T00:06:01.785Z,16.87
2017-06-03T00:07:14.408Z,16.98
2017-06-03T00:08:27.320Z,16.99
2017-06-03T00:09:40.228Z,16.87
2017-06-03T00:10:52.650Z,16.9
2017-06-03T00:12:05.570Z,16.78
2017-06-03T00:13:17.519Z,16.81
2017-06-03T00:14:29.449Z,16.87
2017-06-03T00:15:42.362Z,16.81
2017-06-03T00:16:55.280Z,16.95
2017-06-03T00:18:08.198Z,16.99
2017-06-03T00:19:21.111Z,16.99
2017-06-03T00:20:34.023Z,17.07
2017-06-03T00:21:46.939Z,17.02
2017-06-03T00:22:59.853Z,17.1
2017-06-03T00:24:12.768Z,17.17
2017-06-03T00:25:25.680Z,17.15
2017-06-03T00:26:38.116Z,17.2
2017-06-03T00:27:50.537Z,17.17
2017-06-03T00:29:03.448Z,17.14
2017-06-03T00:30:16.357Z,17.17
2017-06-03T00:31:29.270Z,17.14
2017-06-03T00:32:42.186Z,17.12
2017-06-03T00:33:55.098Z,17.15
2017-06-03T00:35:08.025Z,17.07
2017-06-03T00:36:20.941Z,17.07
2017-06-03T00:37:33.857Z,17.15
2017-06-03T00:38:46.769Z,17.07
2017-06-03T00:39:59.883Z,17.09
2017-06-03T00:41:12.303Z,17.06
2017-06-03T00:42:25.219Z,17.05
2017-06-03T00:43:37.147Z,17.02
2017-06-03T00:44:49.569Z,17.05
2017-06-03T00:46:02.681Z,17.07
2017-06-03T00:47:15.106Z,17
2017-06-03T00:48:28.020Z,17.06
2017-06-03T00:49:40.937Z,17.02
2017-06-03T00:50:53.862Z,17.05
2017-06-03T00:52:06.783Z,17.06
2017-06-03T00:53:19.206Z,17.07
2017-06-03T00:54:32.124Z,17.1
2017-06-03T00:55:45.036Z,17.02
2017-06-03T00:56:57.952Z,17.14
2017-06-03T00:58:10.864Z,17.06
2017-06-03T00:59:23.793Z,16.96
2017-06-03T01:00:36.709Z,16.84
2017-06-03T01:01:49.626Z,16.88
2017-06-03T01:03:02.540Z,16.85
2017-06-03T01:04:15.458Z,16.9
2017-06-03T01:05:28.374Z,16.88
2017-06-03T01:06:41.291Z,16.87
2017-06-03T01:07:54.202Z,16.88
2017-06-03T01:09:07.119Z,16.88
2017-06-03T01:10:20.036Z,16.95
2017-06-03T01:11:32.949Z,16.98
2017-06-03T01:12:45.865Z,16.99
2017-06-03T01:13:58.777Z,16.88
2017-06-03T01:15:11.694Z,16.88
2017-06-03T01:16:24.115Z,16.84
2017-06-03T01:17:36.547Z,16.92
2017-06-03T01:18:49.594Z,16.99
2017-06-03T01:20:02.371Z,16.99
2017-06-03T01:21:15.147Z,16.92
2017-06-03T01:22:26.962Z,16.92
2017-06-03T01:23:39.255Z,16.96
2017-06-03T01:24:51.548Z,16.87
2017-06-03T01:26:04.321Z,16.99
2017-06-03T01:27:17.106Z,16.87
2017-06-03T01:28:29.402Z,16.91
2017-06-03T01:29:41.905Z,16.88
2017-06-03T01:30:54.678Z,16.87
2017-06-03T01:32:07.463Z,16.91
2017-06-03T01:33:19.274Z,16.85
2017-06-03T01:34:32.051Z,16.9
2017-06-03T01:35:44.831Z,16.87
2017-06-03T01:36:57.613Z,16.87
2017-06-03T01:38:09.912Z,16.98
2017-06-03T01:39:22.720Z,16.96
2017-06-03T01:40:35.735Z,16.95
2017-06-03T01:41:48.511Z,17.02
2017-06-03T01:43:01.287Z,16.95
2017-06-03T01:44:14.085Z,17.02
2017-06-03T01:45:26.873Z,17
2017-06-03T01:46:39.169Z,17.02
2017-06-03T01:47:51.944Z,17
2017-06-03T01:49:04.725Z,16.98
2017-06-03T01:50:17.513Z,16.84
2017-06-03T01:51:29.525Z,16.98
2017-06-03T01:52:42.333Z,16.95
2017-06-03T01:53:54.624Z,16.87
2017-06-03T01:55:07.403Z,16.84
2017-06-03T01:56:20.178Z,16.82
2017-06-03T01:57:32.953Z,16.82
2017-06-03T01:58:45.731Z,16.85
2017-06-03T01:59:58.505Z,16.88
2017-06-03T02:01:11.283Z,16.81
2017-06-03T02:02:24.263Z,16.78
2017-06-03T02:03:37.115Z,16.8
2017-06-03T02:04:50.034Z,16.77
2017-06-03T02:06:02.954Z,16.77
2017-06-03T02:07:15.874Z,16.8
2017-06-03T02:08:28.788Z,16.8
2017-06-03T02:09:41.232Z,16.78
2017-06-03T02:10:54.174Z,16.73
2017-06-03T02:12:07.090Z,16.75
2017-06-03T02:13:20.007Z,16.65
2017-06-03T02:14:32.923Z,16.7
2017-06-03T02:15:45.837Z,16.66
2017-06-03T02:16:58.752Z,16.69
2017-06-03T02:18:11.903Z,16.73
2017-06-03T02:19:24.817Z,16.67
2017-06-03T02:20:37.729Z,16.63
2017-06-03T02:21:50.639Z,16.6
2017-06-03T02:23:03.553Z,16.57
2017-06-03T02:24:16.664Z,16.59
2017-06-03T02:25:29.578Z,16.62
2017-06-03T02:26:42.491Z,16.6
2017-06-03T02:27:54.915Z,16.54
2017-06-03T02:29:07.825Z,16.59
2017-06-03T02:30:20.745Z,16.52
2017-06-03T02:31:33.661Z,16.65
2017-06-03T02:32:46.577Z,16.63
2017-06-03T02:33:59.000Z,16.52
2017-06-03T02:35:11.916Z,16.51
2017-06-03T02:36:24.340Z,16.47
2017-06-03T02:37:37.254Z,16.54
2017-06-03T02:38:50.168Z,16.5
2017-06-03T02:40:03.080Z,16.48
2017-06-03T02:41:16.006Z,16.57
2017-06-03T02:42:28.429Z,16.54
2017-06-03T02:43:41.343Z,16.54
2017-06-03T02:44:53.782Z,16.52
2017-06-03T02:46:06.896Z,16.51
2017-06-03T02:47:19.811Z,16.55
2017-06-03T02:48:32.162Z,16.51
2017-06-03T02:49:43.977Z,16.57
2017-06-03T02:50:56.956Z,16.47
2017-06-03T02:52:09.742Z,16.55
2017-06-03T02:53:22.519Z,16.48
2017-06-03T02:54:34.815Z,16.47
2017-06-03T02:55:47.599Z,16.47
2017-06-03T02:57:00.379Z,16.55
2017-06-03T02:58:12.671Z,16.48
2017-06-03T02:59:25.460Z,16.55
2017-06-03T03:00:38.243Z,16.54
2017-06-03T03:01:51.205Z,16.62
2017-06-03T03:03:04.186Z,16.6
2017-06-03T03:04:16.487Z,16.6
2017-06-03T03:05:29.272Z,16.63
2017-06-03T03:06:42.049Z,16.6
2017-06-03T03:07:54.343Z,16.6
2017-06-03T03:09:07.119Z,16.57
2017-06-03T03:10:19.418Z,16.6
2017-06-03T03:11:32.201Z,16.55
2017-06-03T03:12:44.701Z,16.63
2017-06-03T03:13:57.481Z,16.6
2017-06-03T03:15:10.263Z,16.6
2017-06-03T03:16:22.566Z,16.55
2017-06-03T03:17:35.348Z,16.67
2017-06-03T03:18:48.140Z,16.69
2017-06-03T03:20:00.923Z,16.67
2017-06-03T03:21:13.711Z,16.66
2017-06-03T03:22:26.496Z,16.72
2017-06-03T03:23:39.272Z,16.72
2017-06-03T03:24:52.045Z,16.8
2017-06-03T03:26:04.826Z,16.69
2017-06-03T03:27:17.608Z,16.73
2017-06-03T03:28:30.384Z,16.81
2017-06-03T03:29:43.169Z,16.85
2017-06-03T03:30:55.950Z,16.87
2017-06-03T03:32:08.734Z,16.92
2017-06-03T03:33:21.520Z,16.95
2017-06-03T03:34:34.017Z,16.98
2017-06-03T03:35:46.799Z,16.96
2017-06-03T03:36:59.582Z,16.98
2017-06-03T03:38:12.362Z,16.96
2017-06-03T03:39:25.139Z,17.02
2017-06-03T03:40:37.924Z,17.06
2017-06-03T03:41:50.711Z,17.03
2017-06-03T03:43:03.004Z,17.05
2017-06-03T03:44:15.308Z,17
2017-06-03T03:45:28.291Z,17
2017-06-03T03:46:41.079Z,16.98
2017-06-03T03:47:53.866Z,16.96
2017-06-03T03:49:06.645Z,16.98
2017-06-03T03:50:19.420Z,17
2017-06-03T03:51:32.402Z,16.96
2017-06-03T03:52:44.697Z,16.98
2017-06-03T03:53:57.475Z,17.02
2017-06-03T03:55:10.261Z,16.96
2017-06-03T03:56:23.054Z,16.96
2017-06-03T03:57:35.833Z,17
2017-06-03T03:58:48.609Z,16.95
2017-06-03T04:00:00.906Z,16.99
2017-06-03T04:01:13.700Z,16.99
2017-06-03T04:02:26.009Z,17
2017-06-03T04:03:38.314Z,16.91
2017-06-03T04:04:50.706Z,17
2017-06-03T04:06:03.192Z,16.99
2017-06-03T04:07:16.181Z,16.98
2017-06-03T04:08:28.985Z,16.98
2017-06-03T04:09:41.391Z,16.88
2017-06-03T04:10:54.285Z,16.87
2017-06-03T04:12:07.263Z,16.87
2017-06-03T04:13:20.205Z,16.85
2017-06-03T04:14:32.522Z,16.81
2017-06-03T04:15:45.308Z,16.8
2017-06-03T04:16:58.095Z,16.81
2017-06-03T04:18:11.076Z,16.84
2017-06-03T04:19:23.977Z,16.75
2017-06-03T04:20:36.882Z,16.88
2017-06-03T04:21:49.303Z,16.87
2017-06-03T04:23:02.214Z,16.95
2017-06-03T04:24:15.124Z,16.84
2017-06-03T04:25:27.064Z,16.88
2017-06-03T04:26:39.977Z,16.85
2017-06-03T04:27:52.406Z,16.9
2017-06-03T04:29:05.043Z,16.92
2017-06-03T04:30:17.475Z,16.98
2017-06-03T04:31:29.896Z,17
2017-06-03T04:32:42.806Z,16.95
2017-06-03T04:33:55.718Z,16.99
2017-06-03T04:35:08.829Z,16.98
2017-06-03T04:36:21.741Z,16.92
2017-06-03T04:37:34.658Z,16.69
2017-06-03T04:38:47.568Z,16.75
2017-06-03T04:40:00.188Z,16.72
2017-06-03T04:41:12.612Z,16.73
2017-06-03T04:42:25.538Z,16.8
2017-06-03T04:43:38.450Z,16.92
2017-06-03T04:44:51.366Z,16.88
2017-06-03T04:46:04.294Z,16.9
2017-06-03T04:47:17.213Z,16.87
2017-06-03T04:48:29.640Z,16.88
2017-06-03T04:49:42.067Z,16.87
2017-06-03T04:50:55.194Z,16.85
2017-06-03T04:52:08.117Z,16.87
2017-06-03T04:53:21.036Z,16.82
2017-06-03T04:54:33.948Z,16.9
2017-06-03T04:55:46.892Z,16.84
2017-06-03T04:56:59.833Z,16.84
2017-06-03T04:58:12.746Z,16.98
2017-06-03T04:59:25.662Z,17
2017-06-03T05:00:38.085Z,16.98
2017-06-03T05:01:51.195Z,16.87
2017-06-03T05:03:04.112Z,16.91
2017-06-03T05:04:16.899Z,16.82
2017-06-03T05:05:29.675Z,16.88
2017-06-03T05:06:42.449Z,16.87
2017-06-03T05:07:55.421Z,16.98
2017-06-03T05:09:08.195Z,17
2017-06-03T05:10:20.969Z,16.87
2017-06-03T05:11:33.743Z,16.85
2017-06-03T05:12:46.720Z,16.88
2017-06-03T05:13:59.496Z,16.88
2017-06-03T05:15:12.275Z,16.91
2017-06-03T05:16:24.574Z,16.9
2017-06-03T05:17:36.870Z,16.91
2017-06-03T05:18:49.843Z,16.84
2017-06-03T05:20:02.614Z,16.67
2017-06-03T05:21:14.926Z,16.69
2017-06-03T05:22:27.703Z,16.73
2017-06-03T05:23:40.478Z,16.73
2017-06-03T05:24:53.253Z,16.77
2017-06-03T05:26:06.028Z,16.8
2017-06-03T05:27:18.854Z,16.75
2017-06-03T05:28:31.624Z,16.77
2017-06-03T05:29:44.598Z,16.75
2017-06-03T05:30:57.373Z,16.67
2017-06-03T05:32:09.668Z,16.67
2017-06-03T05:33:22.440Z,16.75
2017-06-03T05:34:34.735Z,16.67
2017-06-03T05:35:47.026Z,16.62
2017-06-03T05:36:59.802Z,16.57
2017-06-03T05:38:12.574Z,16.67
2017-06-03T05:39:24.865Z,16.66
2017-06-03T05:40:37.665Z,16.6
2017-06-03T05:41:49.961Z,16.57
2017-06-03T05:43:02.735Z,16.59
2017-06-03T05:44:15.507Z,16.6
2017-06-03T05:45:28.482Z,16.63
2017-06-03T05:46:41.257Z,16.67
2017-06-03T05:47:54.032Z,16.59
2017-06-03T05:49:06.390Z,16.65
2017-06-03T05:50:19.282Z,16.6
2017-06-03T05:51:31.883Z,16.51
2017-06-03T05:52:44.285Z,16.6
2017-06-03T05:53:56.686Z,16.45
2017-06-03T05:55:09.576Z,16.5
2017-06-03T05:56:22.481Z,16.51
2017-06-03T05:57:35.376Z,16.52
2017-06-03T05:58:48.269Z,16.54
2017-06-03T06:00:01.158Z,16.5
2017-06-03T06:01:14.256Z,16.42
2017-06-03T06:02:27.155Z,16.41
2017-06-03T06:03:39.069Z,16.48
2017-06-03T06:04:51.968Z,16.47
2017-06-03T06:06:04.866Z,16.45
2017-06-03T06:07:17.957Z,16.48
2017-06-03T06:08:30.359Z,16.47
2017-06-03T06:09:43.262Z,16.51
2017-06-03T06:10:56.156Z,16.42
2017-06-03T06:12:09.055Z,16.45
2017-06-03T06:13:21.954Z,16.41
2017-06-03T06:14:34.845Z,16.44
2017-06-03T06:15:47.747Z,16.42
2017-06-03T06:17:00.648Z,16.4
2017-06-03T06:18:13.251Z,16.4
2017-06-03T06:19:26.176Z,16.33
2017-06-03T06:20:38.093Z,16.4
2017-06-03T06:21:50.985Z,16.32
2017-06-03T06:23:03.887Z,16.36
2017-06-03T06:24:16.778Z,16.34
2017-06-03T06:25:29.672Z,16.36
2017-06-03T06:26:42.076Z,16.36
2017-06-03T06:27:54.978Z,16.27
2017-06-03T06:29:08.075Z,16.29
2017-06-03T06:30:20.969Z,16.41
2017-06-03T06:31:33.377Z,16.32
2017-06-03T06:32:46.270Z,16.27
2017-06-03T06:33:58.674Z,16.23
2017-06-03T06:35:11.570Z,16.27
2017-06-03T06:36:24.469Z,16.26
2017-06-03T06:37:37.382Z,16.29
2017-06-03T06:38:50.275Z,16.25
2017-06-03T06:40:03.364Z,16.26
2017-06-03T06:41:15.305Z,16.29
2017-06-03T06:42:28.197Z,16.34
2017-06-03T06:43:41.125Z,16.37
2017-06-03T06:44:54.016Z,16.36
2017-06-03T06:46:06.458Z,16.33
2017-06-03T06:47:19.360Z,16.3
2017-06-03T06:48:31.763Z,16.34
2017-06-03T06:49:44.168Z,16.26
2017-06-03T06:50:57.062Z,16.27
2017-06-03T06:52:09.957Z,16.33
2017-06-03T06:53:22.356Z,16.26
2017-06-03T06:54:35.250Z,16.3
2017-06-03T06:55:48.144Z,16.18
2017-06-03T06:57:01.037Z,16.25
2017-06-03T06:58:13.931Z,16.23
2017-06-03T06:59:26.819Z,16.14
2017-06-03T07:00:39.225Z,16.23
2017-06-03T07:01:52.317Z,16.23
2017-06-03T07:03:05.213Z,16.14
2017-06-03T07:04:18.101Z,16.1
2017-06-03T07:05:30.993Z,16.14
2017-06-03T07:06:43.884Z,16.07
2017-06-03T07:07:56.778Z,16.08
2017-06-03T07:09:09.670Z,16.11
2017-06-03T07:10:22.568Z,16.07
2017-06-03T07:11:35.461Z,16.13
2017-06-03T07:12:48.554Z,16.14
2017-06-03T07:14:00.962Z,16.06
2017-06-03T07:15:13.854Z,16.13
2017-06-03T07:16:26.747Z,15.98
2017-06-03T07:17:39.645Z,16.01
2017-06-03T07:18:52.740Z,16.01
2017-06-03T07:20:05.633Z,16.04
2017-06-03T07:21:18.536Z,16.06
2017-06-03T07:22:31.434Z,15.99
2017-06-03T07:23:44.527Z,15.96
2017-06-03T07:24:57.416Z,15.96
2017-06-03T07:26:09.823Z,16.01
2017-06-03T07:27:22.717Z,16.01
2017-06-03T07:28:35.603Z,15.93
2017-06-03T07:29:48.208Z,16.01
2017-06-03T07:31:01.101Z,16.07
2017-06-03T07:32:13.993Z,16.06
2017-06-03T07:33:26.907Z,15.99
2017-06-03T07:34:39.512Z,15.99
2017-06-03T07:35:52.409Z,16.07
2017-06-03T07:37:05.298Z,16.03
2017-06-03T07:38:17.271Z,16.1
2017-06-03T07:39:29.677Z,16.11
2017-06-03T07:40:42.576Z,16.08
2017-06-03T07:41:55.465Z,16.13
2017-06-03T07:43:08.358Z,16.13
2017-06-03T07:44:21.250Z,16.14
2017-06-03T07:45:33.856Z,16.17
2017-06-03T07:46:46.747Z,16.23
2017-06-03T07:47:59.643Z,16.18
2017-06-03T07:49:12.533Z,16.23
2017-06-03T07:50:24.956Z,16.16
2017-06-03T07:51:38.054Z,16.22
2017-06-03T07:52:50.457Z,16.22
2017-06-03T07:54:03.358Z,16.23
2017-06-03T07:55:16.263Z,16.26
2017-06-03T07:56:28.870Z,16.13
2017-06-03T07:57:41.271Z,16.17
2017-06-03T07:58:53.671Z,16.13
2017-06-03T08:00:06.627Z,16.14
2017-06-03T08:01:19.664Z,16.13
2017-06-03T08:02:32.407Z,16.14
2017-06-03T08:03:45.444Z,16.13
2017-06-03T08:04:58.478Z,16.14
2017-06-03T08:06:11.514Z,15.96
2017-06-03T08:07:24.569Z,16.08
2017-06-03T08:08:37.606Z,15.95
2017-06-03T08:09:50.174Z,16.03
2017-06-03T08:11:03.206Z,15.96
2017-06-03T08:12:16.244Z,16.06
2017-06-03T08:13:28.980Z,16.04
2017-06-03T08:14:42.013Z,16.08
2017-06-03T08:15:55.054Z,16.11
2017-06-03T08:17:07.592Z,16.14
2017-06-03T08:18:20.831Z,16.16
2017-06-03T08:19:33.368Z,16.1
2017-06-03T08:20:46.403Z,16.04
2017-06-03T08:21:58.941Z,16.08
2017-06-03T08:23:11.981Z,16.01
2017-06-03T08:24:24.712Z,16.01
2017-06-03T08:25:36.764Z,16.06
2017-06-03T08:26:49.798Z,16.07
2017-06-03T08:28:01.841Z,16.11
2017-06-03T08:29:14.878Z,16.08
2017-06-03T08:30:27.914Z,16.04
2017-06-03T08:31:40.449Z,15.99
2017-06-03T08:32:53.483Z,16.06
2017-06-03T08:34:06.521Z,16.07
2017-06-03T08:35:19.259Z,16.07
2017-06-03T08:36:32.236Z,16.07
2017-06-03T08:37:44.721Z,16.07
2017-06-03T08:38:56.706Z,15.98
2017-06-03T08:40:09.882Z,15.99
2017-06-03T08:41:22.364Z,15.99
2017-06-03T08:42:34.845Z,15.95
2017-06-03T08:43:47.325Z,16.01
2017-06-03T08:45:00.302Z,16.01
2017-06-03T08:46:13.277Z,15.99
2017-06-03T08:47:25.264Z,15.96
2017-06-03T08:48:37.755Z,15.95
2017-06-03T08:49:50.250Z,16.01
2017-06-03T08:51:02.749Z,15.91
2017-06-03T08:52:15.750Z,15.93
2017-06-03T08:53:28.744Z,15.91
2017-06-03T08:54:41.735Z,15.88
2017-06-03T08:55:54.726Z,15.95
2017-06-03T08:57:07.920Z,15.91
2017-06-03T08:58:20.419Z,15.91
2017-06-03T08:59:33.408Z,15.88
2017-06-03T09:00:46.400Z,15.88
2017-06-03T09:01:59.592Z,15.89
2017-06-03T09:03:11.593Z,15.86
2017-06-03T09:04:24.583Z,15.88
2017-06-03T09:05:37.078Z,15.85
2017-06-03T09:06:49.573Z,15.85
2017-06-03T09:08:02.563Z,15.85
2017-06-03T09:09:15.062Z,15.86
2017-06-03T09:10:28.053Z,15.88
2017-06-03T09:11:41.007Z,15.86
2017-06-03T09:12:53.917Z,15.89
2017-06-03T09:14:06.831Z,15.88
2017-06-03T09:15:19.744Z,15.85
2017-06-03T09:16:32.655Z,15.86
2017-06-03T09:17:45.568Z,15.88
2017-06-03T09:18:58.198Z,15.88
2017-06-03T09:20:10.620Z,15.88
2017-06-03T09:21:23.046Z,15.73
2017-06-03T09:22:35.472Z,15.74
2017-06-03T09:23:48.384Z,15.71
2017-06-03T09:25:00.805Z,15.68
2017-06-03T09:26:13.718Z,15.7
2017-06-03T09:27:26.635Z,15.64
2017-06-03T09:28:39.548Z,15.7
2017-06-03T09:29:52.462Z,15.7
2017-06-03T09:31:05.381Z,15.71
2017-06-03T09:32:18.291Z,15.64
2017-06-03T09:33:31.191Z,15.7
2017-06-03T09:34:44.286Z,15.68
2017-06-03T09:35:57.178Z,15.74
2017-06-03T09:37:10.097Z,15.74
2017-06-03T09:38:22.500Z,15.74
2017-06-03T09:39:35.389Z,15.74
2017-06-03T09:40:47.989Z,15.8
2017-06-03T09:42:00.880Z,15.84
2017-06-03T09:43:13.279Z,15.76
2017-06-03T09:44:25.682Z,15.76
2017-06-03T09:45:38.805Z,15.78
2017-06-03T09:46:51.699Z,15.86
2017-06-03T09:48:04.595Z,15.88
2017-06-03T09:49:17.488Z,15.7
2017-06-03T09:50:29.916Z,15.67
2017-06-03T09:51:43.019Z,15.73
2017-06-03T09:52:55.423Z,15.77
2017-06-03T09:54:08.319Z,15.8
2017-06-03T09:55:21.224Z,15.76
2017-06-03T09:56:34.113Z,15.85
2017-06-03T09:57:46.024Z,15.81
2017-06-03T09:58:58.918Z,15.74
2017-06-03T10:00:11.819Z,15.73
2017-06-03T10:01:24.708Z,15.8
2017-06-03T10:02:37.316Z,15.81
2017-06-03T10:03:49.722Z,15.73
2017-06-03T10:05:02.627Z,15.71
2017-06-03T10:06:15.068Z,15.74
2017-06-03T10:07:27.476Z,15.84
2017-06-03T10:08:40.368Z,15.85
2017-06-03T10:09:52.770Z,15.88
2017-06-03T10:11:05.665Z,15.85
2017-06-03T10:12:18.070Z,15.84
2017-06-03T10:13:30.475Z,15.85
2017-06-03T10:14:43.395Z,15.88
2017-06-03T10:15:55.798Z,15.86
2017-06-03T10:17:08.691Z,15.86
2017-06-03T10:18:21.792Z,15.77
2017-06-03T10:19:34.195Z,15.91
2017-06-03T10:20:47.094Z,15.78
2017-06-03T10:21:59.988Z,15.78
2017-06-03T10:23:12.390Z,15.81
2017-06-03T10:24:25.513Z,15.78
2017-06-03T10:25:38.413Z,15.71
2017-06-03T10:26:51.308Z,15.84
2017-06-03T10:28:03.716Z,15.78
2017-06-03T10:29:16.804Z,15.85
2017-06-03T10:30:28.717Z,15.84
2017-06-03T10:31:41.612Z,15.89
2017-06-03T10:32:54.511Z,15.76
2017-06-03T10:34:07.401Z,15.86
2017-06-03T10:35:20.016Z,15.86
2017-06-03T10:36:32.911Z,15.92
2017-06-03T10:37:45.801Z,15.88
2017-06-03T10:38:57.722Z,15.88
2017-06-03T10:40:10.622Z,15.88
2017-06-03T10:41:23.518Z,15.84
2017-06-03T10:42:36.406Z,15.88
2017-06-03T10:43:48.809Z,15.88
2017-06-03T10:45:01.702Z,15.86
2017-06-03T10:46:14.804Z,15.93
2017-06-03T10:47:27.205Z,15.92
2017-06-03T10:48:39.608Z,15.91
2017-06-03T10:49:52.495Z,15.96
2017-06-03T10:51:04.894Z,16.06
2017-06-03T10:52:17.802Z,15.91
2017-06-03T10:53:30.205Z,15.93
2017-06-03T10:54:42.615Z,15.92
2017-06-03T10:55:55.025Z,15.91
2017-06-03T10:57:07.633Z,15.93
2017-06-03T10:58:20.529Z,15.92
2017-06-03T10:59:33.422Z,15.89
2017-06-03T11:00:45.336Z,15.92
2017-06-03T11:01:57.744Z,16.04
2017-06-03T11:03:10.595Z,16.01
2017-06-03T11:04:22.891Z,16.01
2017-06-03T11:05:35.670Z,16.04
2017-06-03T11:06:48.443Z,16.1
2017-06-03T11:08:01.216Z,16.07
2017-06-03T11:09:13.510Z,16.1
2017-06-03T11:10:25.338Z,16.07
2017-06-03T11:11:38.133Z,16.1
2017-06-03T11:12:50.909Z,16.07
2017-06-03T11:14:03.682Z,16.13
2017-06-03T11:15:16.458Z,16.08
2017-06-03T11:16:29.241Z,16.14
2017-06-03T11:17:42.019Z,16.06
2017-06-03T11:18:54.995Z,16.07
2017-06-03T11:20:07.772Z,16.16
2017-06-03T11:21:20.549Z,15.99
2017-06-03T11:22:32.359Z,16.07
2017-06-03T11:23:45.136Z,15.91
2017-06-03T11:24:57.908Z,16.03
2017-06-03T11:26:10.226Z,15.95
2017-06-03T11:27:22.517Z,16.06
2017-06-03T11:28:34.813Z,16.14
2017-06-03T11:29:47.592Z,16.18
2017-06-03T11:31:00.373Z,16.34
2017-06-03T11:32:12.683Z,16.47
2017-06-03T11:33:25.459Z,16.52
2017-06-03T11:34:38.273Z,16.69
2017-06-03T11:35:51.131Z,16.84
2017-06-03T11:37:03.497Z,16.92
2017-06-03T11:38:16.357Z,17.09
2017-06-03T11:39:29.218Z,17.14
2017-06-03T11:40:41.785Z,17.3
2017-06-03T11:41:54.641Z,17.3
2017-06-03T11:43:07.015Z,17.39
2017-06-03T11:44:19.871Z,17.51
2017-06-03T11:45:32.735Z,17.68
2017-06-03T11:46:45.595Z,17.86
2017-06-03T11:47:58.456Z,17.76
2017-06-03T11:49:10.895Z,17.7
2017-06-03T11:50:23.888Z,17.7
2017-06-03T11:51:36.587Z,17.87
2017-06-03T11:52:49.582Z,17.98
2017-06-03T11:54:02.573Z,17.89
2017-06-03T11:55:15.566Z,17.99
2017-06-03T11:56:28.562Z,18.02
2017-06-03T11:57:41.554Z,18.07
2017-06-03T11:58:54.553Z,18.13
2017-06-03T12:00:07.553Z,18.23
2017-06-03T12:01:20.549Z,18.39
2017-06-03T12:02:33.246Z,18.54
2017-06-03T12:03:46.238Z,18.71
2017-06-03T12:04:58.737Z,18.79
2017-06-03T12:06:11.240Z,18.83
2017-06-03T12:07:23.746Z,18.87
2017-06-03T12:08:36.739Z,18.97
2017-06-03T12:09:49.699Z,18.96
2017-06-03T12:11:02.618Z,19.06
2017-06-03T12:12:15.532Z,19.15
2017-06-03T12:13:27.958Z,19.17
2017-06-03T12:14:40.882Z,19.28
2017-06-03T12:15:53.800Z,19.34
2017-06-03T12:17:06.231Z,19.39
2017-06-03T12:18:19.145Z,19.42
2017-06-03T12:19:32.057Z,19.5
2017-06-03T12:20:44.976Z,19.57
2017-06-03T12:21:57.890Z,19.64
2017-06-03T12:23:10.805Z,19.64
2017-06-03T12:24:23.238Z,19.64
2017-06-03T12:25:36.153Z,19.78
2017-06-03T12:26:48.581Z,19.82
2017-06-03T12:28:01.495Z,19.86
2017-06-03T12:29:14.611Z,19.94
2017-06-03T12:30:27.529Z,20.01
2017-06-03T12:31:40.446Z,20.1
2017-06-03T12:32:52.876Z,20.15
2017-06-03T12:34:05.783Z,20.15
2017-06-03T12:35:18.207Z,20.17
2017-06-03T12:36:31.103Z,20.19
2017-06-03T12:37:44.003Z,20.3
2017-06-03T12:38:56.899Z,20.37
2017-06-03T12:40:09.791Z,20.33
2017-06-03T12:41:22.197Z,20.22
2017-06-03T12:42:35.101Z,20.33
2017-06-03T12:43:47.994Z,20.5
2017-06-03T12:45:00.886Z,20.5
2017-06-03T12:46:13.327Z,20.69
2017-06-03T12:47:25.734Z,20.66
2017-06-03T12:48:38.632Z,20.5
2017-06-03T12:49:51.042Z,20.51
2017-06-03T12:51:04.143Z,20.56
2017-06-03T12:52:17.045Z,20.68
2017-06-03T12:53:29.464Z,20.68
2017-06-03T12:54:41.870Z,20.73
2017-06-03T12:55:54.764Z,20.48
2017-06-03T12:57:07.663Z,20.51
2017-06-03T12:58:20.560Z,20.15
2017-06-03T12:59:32.968Z,19.67
2017-06-03T13:00:45.382Z,19.64
2017-06-03T13:01:57.792Z,19.67
2017-06-03T13:03:10.690Z,19.75
2017-06-03T13:04:23.591Z,19.8
2017-06-03T13:05:36.482Z,19.68
2017-06-03T13:06:49.380Z,19.8
2017-06-03T13:08:01.298Z,19.78
2017-06-03T13:09:14.191Z,19.79
2017-06-03T13:10:26.599Z,19.67
2017-06-03T13:11:38.514Z,19.64
2017-06-03T13:12:51.661Z,19.62
2017-06-03T13:14:04.067Z,19.68
2017-06-03T13:15:16.999Z,19.64
2017-06-03T13:16:29.888Z,19.47
2017-06-03T13:17:42.786Z,19.3
2017-06-03T13:18:55.720Z,19.39
2017-06-03T13:20:07.659Z,19.42
2017-06-03T13:21:20.086Z,19.49
2017-06-03T13:22:33.003Z,19.43
2017-06-03T13:23:46.117Z,19.52
2017-06-03T13:24:58.541Z,19.58
2017-06-03T13:26:11.453Z,19.47
2017-06-03T13:27:24.377Z,19.43
2017-06-03T13:28:37.291Z,19.4
2017-06-03T13:29:50.211Z,19.17
2017-06-03T13:31:03.125Z,19.07
2017-06-03T13:32:15.555Z,19.1
2017-06-03T13:33:28.469Z,19.15
2017-06-03T13:34:41.587Z,19.23
2017-06-03T13:35:54.014Z,19.21
2017-06-03T13:37:06.933Z,19.23
2017-06-03T13:38:19.361Z,19.15
2017-06-03T13:39:32.282Z,19.27
2017-06-03T13:40:45.398Z,19.35
2017-06-03T13:41:58.326Z,19.47
2017-06-03T13:43:11.239Z,19.52
2017-06-03T13:44:23.669Z,19.58
2017-06-03T13:45:36.782Z,19.58
2017-06-03T13:46:49.205Z,19.53
2017-06-03T13:48:02.121Z,19.68
2017-06-03T13:49:15.040Z,19.8
2017-06-03T13:50:27.968Z,19.85
2017-06-03T13:51:40.596Z,19.86
2017-06-03T13:52:53.509Z,19.9
2017-06-03T13:54:05.933Z,20.08
2017-06-03T13:55:17.866Z,20.08
2017-06-03T13:56:30.291Z,20.22
2017-06-03T13:57:43.241Z,20.22
2017-06-03T13:58:56.153Z,20.19
2017-06-03T14:00:09.085Z,20.13
2017-06-03T14:01:22.007Z,20.13
2017-06-03T14:02:34.640Z,20.08
2017-06-03T14:03:47.000Z,20.16
2017-06-03T14:04:59.779Z,20.22
2017-06-03T14:06:12.090Z,20.34
2017-06-03T14:07:24.872Z,20.35
2017-06-03T14:08:37.650Z,20.54
2017-06-03T14:09:50.433Z,20.51
2017-06-03T14:11:03.250Z,20.71
2017-06-03T14:12:15.546Z,20.73
2017-06-03T14:13:28.048Z,20.9
2017-06-03T14:14:40.838Z,20.9
2017-06-03T14:15:53.617Z,20.98
2017-06-03T14:17:06.427Z,21.06
2017-06-03T14:18:18.726Z,21.21
2017-06-03T14:19:31.026Z,21.26
2017-06-03T14:20:43.804Z,21.28
2017-06-03T14:21:56.582Z,21.34
2017-06-03T14:23:08.397Z,21.28
2017-06-03T14:24:20.693Z,21.3
2017-06-03T14:25:33.493Z,21.38
2017-06-03T14:26:46.273Z,21.34
2017-06-03T14:27:59.061Z,21.42
2017-06-03T14:29:12.037Z,21.56
2017-06-03T14:30:24.822Z,21.56
2017-06-03T14:31:37.602Z,21.58
2017-06-03T14:32:50.379Z,21.63
2017-06-03T14:34:03.225Z,21.68
2017-06-03T14:35:16.344Z,21.71
2017-06-03T14:36:29.272Z,21.67
2017-06-03T14:37:41.711Z,21.67
2017-06-03T14:38:54.637Z,21.68
2017-06-03T14:40:07.560Z,21.58
2017-06-03T14:41:19.993Z,21.7
2017-06-03T14:42:32.915Z,21.67
2017-06-03T14:43:45.343Z,21.68
2017-06-03T14:44:57.771Z,21.51
2017-06-03T14:46:10.692Z,21.4
2017-06-03T14:47:23.612Z,21.31
2017-06-03T14:48:36.052Z,21.15
2017-06-03T14:49:48.489Z,21.05
2017-06-03T14:51:01.120Z,20.85
2017-06-03T14:52:13.067Z,20.88
2017-06-03T14:53:25.516Z,20.69
2017-06-03T14:54:38.443Z,20.6
2017-06-03T14:55:51.375Z,20.68
2017-06-03T14:57:04.302Z,20.71
2017-06-03T14:58:17.227Z,20.68
2017-06-03T14:59:29.172Z,20.81
2017-06-03T15:00:40.129Z,20.79
2017-06-03T15:01:52.759Z,20.82
2017-06-03T15:03:05.187Z,20.91
2017-06-03T15:04:17.624Z,20.69
2017-06-03T15:05:30.555Z,20.51
2017-06-03T15:06:43.475Z,20.37
2017-06-03T15:07:55.914Z,20.38
2017-06-03T15:09:08.392Z,20.46
2017-06-03T15:10:21.321Z,20.46
2017-06-03T15:11:34.248Z,20.54
2017-06-03T15:12:46.885Z,20.58
2017-06-03T15:13:59.815Z,20.73
2017-06-03T15:15:12.740Z,20.57
2017-06-03T15:16:25.670Z,20.57
2017-06-03T15:17:38.098Z,20.69
2017-06-03T15:18:51.051Z,20.73
2017-06-03T15:20:03.979Z,20.82
2017-06-03T15:21:16.412Z,20.81
2017-06-03T15:22:28.843Z,20.79
2017-06-03T15:23:41.967Z,20.83
2017-06-03T15:24:54.405Z,20.79
2017-06-03T15:26:06.352Z,20.81
2017-06-03T15:27:18.784Z,20.87
2017-06-03T15:28:31.710Z,20.83
2017-06-03T15:29:44.637Z,20.93
2017-06-03T15:30:57.565Z,20.96
2017-06-03T15:32:10.490Z,21
2017-06-03T15:33:22.936Z,20.98
2017-06-03T15:34:35.080Z,21.08
2017-06-03T15:35:48.011Z,21.06
2017-06-03T15:37:00.961Z,21.06
2017-06-03T15:38:13.395Z,21.15
2017-06-03T15:39:26.325Z,21.18
2017-06-03T15:40:39.260Z,21.15
2017-06-03T15:41:51.700Z,21.18